createdAt,value
2023-02-09T00:02:14.455Z,1.50
2023-02-09T00:04:42.602Z,2.00
2023-02-09T00:07:11.116Z,1.50
2023-02-09T00:09:40.846Z,1.50
2023-02-09T00:12:27.995Z,1.50
2023-02-09T00:14:56.127Z,1.50
2023-02-09T00:17:24.301Z,1.50
2023-02-09T00:19:54.585Z,1.60
2023-02-09T00:22:24.992Z,2.00
2023-02-09T00:24:57.317Z,2.60
2023-02-09T00:27:25.520Z,1.70
2023-02-09T00:32:21.944Z,1.60
2023-02-09T00:34:50.166Z,1.60
2023-02-09T00:37:18.136Z,1.70
2023-02-09T00:39:46.254Z,1.60
2023-02-09T00:42:15.662Z,1.60
2023-02-09T00:44:43.759Z,1.60
2023-02-09T00:47:12.017Z,3.20
2023-02-09T00:49:40.604Z,1.60
2023-02-09T00:52:10.154Z,1.70
2023-02-09T00:59:36.852Z,1.60
2023-02-09T01:04:33.595Z,1.70
2023-02-09T01:07:01.657Z,1.60
2023-02-09T01:09:29.895Z,1.50
2023-02-09T01:11:57.962Z,1.60
2023-02-09T01:14:26.111Z,1.70
2023-02-09T01:16:55.545Z,1.70
2023-02-09T01:19:23.544Z,1.60
2023-02-09T01:24:19.988Z,1.80
2023-02-09T01:26:48.112Z,1.70
2023-02-09T01:29:18.291Z,1.70
2023-02-09T01:31:47.718Z,1.80
2023-02-09T01:34:18.919Z,1.80
2023-02-09T01:36:46.990Z,1.80
2023-02-09T01:39:15.562Z,1.80
2023-02-09T01:41:44.588Z,1.90
2023-02-09T01:44:48.833Z,1.80
2023-02-09T01:47:21.007Z,1.70
2023-02-09T01:49:52.220Z,2.00
2023-02-09T01:52:27.037Z,1.90
2023-02-09T01:54:58.725Z,2.00
2023-02-09T01:57:32.521Z,2.00
2023-02-09T02:00:03.640Z,2.00
2023-02-09T02:02:32.327Z,2.10
2023-02-09T02:05:02.320Z,2.00
2023-02-09T02:07:37.564Z,2.10
2023-02-09T02:10:06.196Z,2.00
2023-02-09T02:12:34.936Z,2.00
2023-02-09T02:15:03.155Z,2.00
2023-02-09T02:17:45.671Z,2.00
2023-02-09T02:20:52.199Z,1.80
2023-02-09T02:23:28.269Z,1.80
2023-02-09T02:26:35.087Z,2.80
2023-02-09T02:29:28.453Z,1.80
2023-02-09T02:32:23.717Z,1.90
2023-02-09T02:34:59.120Z,1.90
2023-02-09T02:37:36.363Z,1.80
2023-02-09T02:40:11.960Z,1.80
2023-02-09T02:42:52.030Z,1.80
2023-02-09T02:45:41.089Z,1.80
2023-02-09T02:48:24.141Z,1.80
2023-02-09T02:50:56.661Z,1.90
2023-02-09T02:53:29.250Z,1.80
2023-02-09T02:56:01.534Z,1.90
2023-02-09T02:58:31.192Z,2.00
2023-02-09T03:01:03.191Z,1.80
2023-02-09T03:03:37.627Z,1.90
2023-02-09T03:06:07.388Z,3.10
2023-02-09T03:08:52.209Z,1.90
2023-02-09T03:11:22.566Z,2.00
2023-02-09T03:14:01.067Z,1.90
2023-02-09T03:16:38.066Z,2.00
2023-02-09T03:19:15.464Z,3.40
2023-02-09T03:21:50.674Z,1.90
2023-02-09T03:24:28.619Z,2.00
2023-02-09T03:26:59.535Z,2.00
2023-02-09T03:29:29.837Z,2.00
2023-02-09T03:31:58.801Z,1.90
2023-02-09T03:34:28.846Z,2.00
2023-02-09T03:36:58.346Z,2.10
2023-02-09T03:39:26.223Z,2.00
2023-02-09T03:41:54.318Z,2.10
2023-02-09T03:44:27.227Z,2.10
2023-02-09T03:46:56.951Z,2.10
2023-02-09T03:49:25.351Z,2.30
2023-02-09T03:51:55.844Z,2.10
2023-02-09T03:54:24.291Z,2.20
2023-02-09T03:56:52.401Z,2.10
2023-02-09T03:59:21.389Z,2.20
2023-02-09T04:01:50.479Z,2.20
2023-02-09T04:04:20.069Z,2.20
2023-02-09T04:06:49.216Z,2.30
2023-02-09T04:09:21.882Z,2.30
2023-02-09T04:11:53.237Z,0.80
2023-02-09T04:14:22.721Z,2.20
2023-02-09T04:16:52.751Z,2.20
2023-02-09T04:19:21.477Z,2.20
2023-02-09T04:21:52.627Z,2.30
2023-02-09T04:24:36.304Z,2.10
2023-02-09T04:27:04.710Z,2.20
2023-02-09T04:29:33.234Z,2.10
2023-02-09T04:32:03.141Z,2.20
2023-02-09T04:34:31.748Z,4.30
2023-02-09T04:37:05.200Z,2.20
2023-02-09T04:39:37.015Z,2.10
2023-02-09T04:42:10.481Z,2.10
2023-02-09T04:44:38.759Z,2.10
2023-02-09T04:47:11.460Z,2.30
2023-02-09T04:49:40.858Z,2.30
2023-02-09T04:52:09.069Z,2.40
2023-02-09T04:54:38.477Z,2.20
2023-02-09T04:57:23.870Z,2.20
2023-02-09T04:59:52.051Z,2.20
2023-02-09T05:02:20.003Z,2.10
2023-02-09T05:04:48.182Z,2.20
2023-02-09T05:07:16.491Z,2.10
2023-02-09T05:09:45.813Z,2.20
2023-02-09T05:12:13.862Z,2.10
2023-02-09T05:14:41.922Z,2.20
2023-02-09T05:17:10.053Z,3.50
2023-02-09T05:19:38.033Z,2.30
2023-02-09T05:22:06.257Z,2.10
2023-02-09T05:24:34.362Z,2.20
2023-02-09T05:27:03.784Z,3.20
2023-02-09T05:29:31.803Z,2.00
2023-02-09T05:31:59.924Z,2.00
2023-02-09T05:34:29.737Z,2.00
2023-02-09T05:36:57.850Z,2.10
2023-02-09T05:39:26.390Z,2.00
2023-02-09T05:42:11.655Z,2.00
2023-02-09T05:44:41.086Z,2.00
2023-02-09T05:47:09.149Z,1.90
2023-02-09T05:49:37.187Z,1.70
2023-02-09T05:52:05.820Z,3.00
2023-02-09T05:54:34.175Z,1.80
2023-02-09T05:57:02.538Z,1.90
2023-02-09T05:59:33.214Z,1.80
2023-02-09T06:02:02.961Z,1.90
2023-02-09T06:04:32.636Z,1.90
2023-02-09T06:07:00.695Z,1.90
2023-02-09T06:09:29.027Z,1.90
2023-02-09T06:11:57.070Z,1.80
2023-02-09T06:14:26.181Z,1.90
2023-02-09T06:16:54.322Z,1.80
2023-02-09T06:19:23.791Z,1.70
2023-02-09T06:21:51.781Z,-1.50
2023-02-09T06:24:19.627Z,1.90
2023-02-09T06:26:47.991Z,1.80
2023-02-09T06:29:16.253Z,4.80
2023-02-09T06:31:44.593Z,1.80
2023-02-09T06:34:14.749Z,1.70
2023-02-09T06:36:44.168Z,1.80
2023-02-09T06:39:12.858Z,1.80
2023-02-09T06:41:41.323Z,1.90
2023-02-09T06:44:09.572Z,1.70
2023-02-09T06:46:37.645Z,1.80
2023-02-09T06:49:08.614Z,1.80
2023-02-09T06:51:37.750Z,1.70
2023-02-09T06:54:07.377Z,1.80
2023-02-09T06:56:35.294Z,1.80
2023-02-09T06:59:03.461Z,5.20
2023-02-09T07:01:31.668Z,1.80
2023-02-09T07:03:59.741Z,1.80
2023-02-09T07:06:28.041Z,1.80
2023-02-09T07:08:56.107Z,1.80
2023-02-09T07:11:25.693Z,1.80
2023-02-09T07:13:53.709Z,1.80
2023-02-09T07:16:21.859Z,1.80
2023-02-09T07:18:49.959Z,1.90
2023-02-09T07:21:19.920Z,1.80
2023-02-09T07:23:48.826Z,1.80
2023-02-09T07:26:18.858Z,1.80
2023-02-09T07:28:48.407Z,1.80
2023-02-09T07:31:17.647Z,1.90
2023-02-09T07:33:46.142Z,1.90
2023-02-09T07:36:16.177Z,2.10
2023-02-09T07:38:44.685Z,1.90
2023-02-09T07:41:19.384Z,1.90
2023-02-09T07:43:49.107Z,1.90
2023-02-09T07:46:18.913Z,1.90
2023-02-09T07:48:46.946Z,1.90
2023-02-09T07:51:15.949Z,1.90
2023-02-09T07:53:44.011Z,2.00
2023-02-09T07:56:12.409Z,2.00
2023-02-09T07:58:40.522Z,2.00
2023-02-09T08:01:12.243Z,2.10
2023-02-09T08:03:41.843Z,2.10
2023-02-09T08:06:19.635Z,2.10
2023-02-09T08:08:49.087Z,2.20
2023-02-09T08:11:18.557Z,2.10
2023-02-09T08:13:46.811Z,2.20
2023-02-09T08:16:19.055Z,2.00
2023-02-09T08:18:52.664Z,2.30
2023-02-09T08:21:21.612Z,2.20
2023-02-09T08:23:53.847Z,2.30
2023-02-09T08:26:22.387Z,2.30
2023-02-09T08:28:51.098Z,2.30
2023-02-09T08:31:22.239Z,2.40
2023-02-09T08:33:51.997Z,2.60
2023-02-09T08:36:21.855Z,2.40
2023-02-09T08:38:49.720Z,2.50
2023-02-09T08:41:18.869Z,2.50
2023-02-09T08:43:50.061Z,2.70
2023-02-09T08:46:18.828Z,2.70
2023-02-09T08:48:48.547Z,2.70
2023-02-09T08:51:17.635Z,2.70
2023-02-09T08:53:52.142Z,2.70
2023-02-09T08:56:21.975Z,2.80
2023-02-09T08:58:50.461Z,2.90
2023-02-09T09:01:18.696Z,2.80
2023-02-09T09:03:48.363Z,3.00
2023-02-09T09:06:16.634Z,3.00
2023-02-09T09:08:44.959Z,3.00
2023-02-09T09:11:14.796Z,3.10
2023-02-09T09:13:43.636Z,3.10
2023-02-09T09:16:18.657Z,3.20
2023-02-09T09:18:48.964Z,3.30
2023-02-09T09:21:19.697Z,3.40
2023-02-09T09:23:48.375Z,3.50
2023-02-09T09:26:17.252Z,4.10
2023-02-09T09:28:45.772Z,3.50
2023-02-09T09:31:16.957Z,3.60
2023-02-09T09:33:47.923Z,3.60
2023-02-09T09:36:16.165Z,3.70
2023-02-09T09:38:45.147Z,3.80
2023-02-09T09:41:24.027Z,3.90
2023-02-09T09:43:53.278Z,3.90
2023-02-09T09:46:23.954Z,4.00
2023-02-09T09:48:56.547Z,4.00
2023-02-09T09:51:34.101Z,4.10
2023-02-09T09:54:04.074Z,4.70
2023-02-09T09:56:33.573Z,4.10
2023-02-09T09:59:03.044Z,4.20
2023-02-09T10:01:34.041Z,4.20
2023-02-09T10:04:08.047Z,4.10
2023-02-09T10:06:35.978Z,5.00
2023-02-09T10:09:09.301Z,4.40
2023-02-09T10:11:42.181Z,4.30
2023-02-09T10:14:11.177Z,4.40
2023-02-09T10:16:39.522Z,4.50
2023-02-09T10:19:20.073Z,4.50
2023-02-09T10:21:49.602Z,4.50
2023-02-09T10:24:24.941Z,4.50
2023-02-09T10:27:14.531Z,5.30
2023-02-09T10:29:43.093Z,4.60
2023-02-09T10:32:17.169Z,5.50
2023-02-09T10:34:50.498Z,4.70
2023-02-09T10:37:26.830Z,4.80
2023-02-09T10:40:06.958Z,4.80
2023-02-09T10:42:36.927Z,4.80
2023-02-09T10:45:14.629Z,4.90
2023-02-09T10:47:57.229Z,5.00
2023-02-09T10:50:26.737Z,5.00
2023-02-09T10:53:01.038Z,5.00
2023-02-09T10:55:35.314Z,5.10
2023-02-09T10:58:13.482Z,5.20
2023-02-09T11:00:50.326Z,5.20
2023-02-09T11:03:20.852Z,5.30
2023-02-09T11:05:59.895Z,6.50
2023-02-09T11:08:41.740Z,6.30
2023-02-09T11:11:15.496Z,4.20
2023-02-09T11:13:43.602Z,6.30
2023-02-09T11:16:48.436Z,6.90
2023-02-09T11:19:31.578Z,5.60
2023-02-09T11:22:07.375Z,5.70
2023-02-09T11:24:48.165Z,5.70
2023-02-09T11:27:31.954Z,5.80
2023-02-09T11:30:12.565Z,6.90
2023-02-09T11:32:45.227Z,5.90
2023-02-09T11:35:18.945Z,6.00
2023-02-09T11:37:56.534Z,6.00
2023-02-09T11:40:30.344Z,7.20
2023-02-09T11:43:14.638Z,7.20
2023-02-09T11:45:45.963Z,6.20
2023-02-09T11:48:20.858Z,7.70
2023-02-09T11:50:58.001Z,6.80
2023-02-09T11:53:35.903Z,6.40
2023-02-09T11:56:06.113Z,6.50
2023-02-09T11:58:41.510Z,6.60
2023-02-09T12:01:20.313Z,6.30
2023-02-09T12:04:00.166Z,6.70
2023-02-09T12:06:33.825Z,6.80
2023-02-09T12:09:12.082Z,6.80
2023-02-09T12:12:04.227Z,6.90
2023-02-09T12:14:54.771Z,7.80
2023-02-09T12:17:29.999Z,7.10
2023-02-09T12:20:00.357Z,7.10
2023-02-09T12:22:50.189Z,7.10
2023-02-09T12:25:36.486Z,7.10
2023-02-09T12:28:18.064Z,7.10
2023-02-09T12:31:16.249Z,7.00
2023-02-09T12:34:23.641Z,7.20
2023-02-09T12:37:18.577Z,7.20
2023-02-09T12:40:23.960Z,7.30
2023-02-09T12:43:13.726Z,7.20
2023-02-09T12:45:42.883Z,7.30
2023-02-09T12:48:19.322Z,7.30
2023-02-09T12:50:53.859Z,7.30
2023-02-09T12:53:46.101Z,7.30
2023-02-09T12:56:30.472Z,7.40
2023-02-09T12:59:18.473Z,7.40
2023-02-09T13:02:16.004Z,7.30
2023-02-09T13:04:58.685Z,7.30
2023-02-09T13:07:36.769Z,7.30
2023-02-09T13:10:15.562Z,7.40
2023-02-09T13:12:49.904Z,7.40
2023-02-09T13:15:20.209Z,7.20
2023-02-09T13:18:02.863Z,7.40
2023-02-09T13:21:08.191Z,7.70
2023-02-09T13:23:43.414Z,7.30
2023-02-09T13:26:19.929Z,7.30
2023-02-09T13:28:47.914Z,7.40
2023-02-09T13:31:37.105Z,8.50
2023-02-09T13:34:19.002Z,7.60
2023-02-09T13:36:55.016Z,7.50
2023-02-09T13:39:25.803Z,7.60
2023-02-09T13:41:55.606Z,7.50
2023-02-09T13:44:25.309Z,7.40
2023-02-09T13:46:56.570Z,7.60
2023-02-09T13:49:25.953Z,7.40
2023-02-09T13:52:14.544Z,7.30
2023-02-09T13:54:43.495Z,7.30
2023-02-09T13:57:17.696Z,7.60
2023-02-09T13:59:46.287Z,7.50
2023-02-09T14:02:23.221Z,7.30
2023-02-09T14:04:54.356Z,7.30
2023-02-09T14:07:25.767Z,7.30
2023-02-09T14:09:59.428Z,7.60
2023-02-09T14:12:52.393Z,7.60
2023-02-09T14:15:40.269Z,7.40
2023-02-09T14:18:32.207Z,7.40
2023-02-09T14:21:18.661Z,7.40
2023-02-09T14:23:49.180Z,7.40
2023-02-09T14:26:25.823Z,7.40
2023-02-09T14:28:56.481Z,7.70
2023-02-09T14:31:26.483Z,7.70
2023-02-09T14:33:57.401Z,7.40
2023-02-09T14:36:30.499Z,7.60
2023-02-09T14:39:12.055Z,7.40
2023-02-09T14:41:40.614Z,7.40
2023-02-09T14:44:21.879Z,7.40
2023-02-09T14:46:51.980Z,7.40
2023-02-09T14:49:24.184Z,7.50
2023-02-09T14:51:58.082Z,7.90
2023-02-09T14:54:36.045Z,7.60
2023-02-09T14:57:05.619Z,7.40
2023-02-09T14:59:34.037Z,7.50
2023-02-09T15:02:02.132Z,7.50
2023-02-09T15:04:31.904Z,7.50
2023-02-09T15:07:04.410Z,7.60
2023-02-09T15:09:36.469Z,7.90
2023-02-09T15:12:05.731Z,7.30
2023-02-09T15:14:39.530Z,7.30
2023-02-09T15:17:16.374Z,7.70
2023-02-09T15:19:46.679Z,7.70
2023-02-09T15:22:18.428Z,7.90
2023-02-09T15:24:48.104Z,7.70
2023-02-09T15:27:21.716Z,7.40
2023-02-09T15:29:50.299Z,8.20
2023-02-09T15:32:20.819Z,7.60
2023-02-09T15:34:51.874Z,7.50
2023-02-09T15:37:24.860Z,7.50
2023-02-09T15:39:56.420Z,7.70
2023-02-09T15:42:42.185Z,7.80
2023-02-09T15:45:40.546Z,8.70
2023-02-09T15:48:09.682Z,7.50
2023-02-09T15:50:42.074Z,7.60
2023-02-09T15:53:15.014Z,7.50
2023-02-09T15:55:44.859Z,7.70
2023-02-09T15:58:15.261Z,7.90
2023-02-09T16:00:43.514Z,7.90
2023-02-09T16:03:15.903Z,7.80
2023-02-09T16:05:46.994Z,7.70
2023-02-09T16:08:21.154Z,7.60
2023-02-09T16:10:49.872Z,7.60
2023-02-09T16:13:20.349Z,7.80
2023-02-09T16:15:49.588Z,7.90
2023-02-09T16:18:17.903Z,7.60
2023-02-09T16:20:54.880Z,7.80
2023-02-09T16:23:27.309Z,7.50
2023-02-09T16:25:55.616Z,7.50
2023-02-09T16:28:23.860Z,7.60
2023-02-09T16:30:54.773Z,7.90
2023-02-09T16:33:25.288Z,7.50
2023-02-09T16:35:56.947Z,7.80
2023-02-09T16:38:31.707Z,7.50
2023-02-09T16:41:00.412Z,7.50
2023-02-09T16:43:28.952Z,7.40
2023-02-09T16:46:03.685Z,7.40
2023-02-09T16:48:34.610Z,7.50
2023-02-09T16:51:04.217Z,8.50
2023-02-09T16:53:35.355Z,7.70
2023-02-09T16:56:06.634Z,8.20
2023-02-09T16:58:35.235Z,7.30
2023-02-09T17:01:04.212Z,7.30
2023-02-09T17:03:36.146Z,7.30
2023-02-09T17:06:07.316Z,7.30
2023-02-09T17:08:38.023Z,7.20
2023-02-09T17:11:07.894Z,7.40
2023-02-09T17:13:36.096Z,7.20
2023-02-09T17:16:07.033Z,7.50
2023-02-09T17:18:40.335Z,7.10
2023-02-09T17:21:14.525Z,7.10
2023-02-09T17:23:43.542Z,7.00
2023-02-09T17:26:11.896Z,7.30
2023-02-09T17:28:42.958Z,7.20
2023-02-09T17:31:18.750Z,6.90
2023-02-09T17:33:49.216Z,6.90
2023-02-09T17:36:26.239Z,7.20
2023-02-09T17:38:56.123Z,6.80
2023-02-09T17:41:29.836Z,6.70
2023-02-09T17:44:05.582Z,6.90
2023-02-09T17:46:42.918Z,7.00
2023-02-09T17:49:11.341Z,6.80
2023-02-09T17:51:42.974Z,6.90
2023-02-09T17:54:14.328Z,6.80
2023-02-09T17:56:43.157Z,7.20
2023-02-09T17:59:13.097Z,6.20
2023-02-09T18:01:43.144Z,6.20
2023-02-09T18:04:17.344Z,6.20
2023-02-09T18:06:49.713Z,6.20
2023-02-09T18:09:17.839Z,6.40
2023-02-09T18:12:05.353Z,6.10
2023-02-09T18:14:35.328Z,6.10
2023-02-09T18:17:03.682Z,6.10
2023-02-09T18:19:34.082Z,6.00
2023-02-09T18:22:04.724Z,6.20
2023-02-09T18:24:36.928Z,5.90
2023-02-09T18:27:05.689Z,6.50
2023-02-09T18:29:33.976Z,6.10
2023-02-09T18:32:03.663Z,5.80
2023-02-09T18:34:32.171Z,5.80
2023-02-09T18:37:00.169Z,5.80
2023-02-09T18:39:30.643Z,5.20
2023-02-09T18:42:01.533Z,5.70
2023-02-09T18:44:32.344Z,5.70
2023-02-09T18:47:01.954Z,5.40
2023-02-09T18:49:31.149Z,5.30
2023-02-09T18:51:59.591Z,5.30
2023-02-09T18:54:34.296Z,5.30
2023-02-09T18:57:02.474Z,5.70
2023-02-09T18:59:31.993Z,5.90
2023-02-09T19:02:00.729Z,5.10
2023-02-09T19:04:28.859Z,5.90
2023-02-09T19:06:58.727Z,5.00
2023-02-09T19:09:27.095Z,5.00
2023-02-09T19:11:59.365Z,4.90
2023-02-09T19:14:39.317Z,5.20
2023-02-09T19:17:08.708Z,5.60
2023-02-09T19:19:38.214Z,5.00
2023-02-09T19:22:07.015Z,4.80
2023-02-09T19:24:35.137Z,4.90
2023-02-09T19:27:06.713Z,4.70
2023-02-09T19:29:35.016Z,4.60
2023-02-09T19:32:03.408Z,4.90
2023-02-09T19:34:32.906Z,5.50
2023-02-09T19:37:01.254Z,4.50
2023-02-09T19:39:29.403Z,4.50
2023-02-09T19:41:57.383Z,4.50
2023-02-09T19:44:26.828Z,4.90
2023-02-09T19:46:54.893Z,4.40
2023-02-09T19:49:22.996Z,4.40
2023-02-09T19:51:51.237Z,4.30
2023-02-09T19:54:20.293Z,4.30
2023-02-09T19:56:48.484Z,4.50
2023-02-09T19:59:17.297Z,4.50
2023-02-09T20:01:47.093Z,4.30
2023-02-09T20:04:15.615Z,4.50
2023-02-09T20:06:43.931Z,4.20
2023-02-09T20:09:12.740Z,4.30
2023-02-09T20:11:40.900Z,4.30
2023-02-09T20:14:09.778Z,5.60
2023-02-09T20:16:37.955Z,4.20
2023-02-09T20:19:07.624Z,4.20
2023-02-09T20:21:35.675Z,4.60
2023-02-09T20:24:09.518Z,4.60
2023-02-09T20:26:37.767Z,4.10
2023-02-09T20:29:06.511Z,4.10
2023-02-09T20:31:37.565Z,4.00
2023-02-09T20:34:09.077Z,4.00
2023-02-09T20:36:40.003Z,4.00
2023-02-09T20:39:13.434Z,4.00
2023-02-09T20:42:01.583Z,4.00
2023-02-09T20:44:47.182Z,3.90
2023-02-09T20:47:15.561Z,3.90
2023-02-09T20:49:45.076Z,3.90
2023-02-09T20:52:13.352Z,4.20
2023-02-09T20:54:41.873Z,4.40
2023-02-09T20:57:09.963Z,3.90
2023-02-09T20:59:37.968Z,4.70
2023-02-09T21:02:06.043Z,3.90
2023-02-09T21:04:34.109Z,3.90
2023-02-09T21:07:04.311Z,4.20
2023-02-09T21:09:34.249Z,3.90
2023-02-09T21:12:02.389Z,3.90
2023-02-09T21:14:41.778Z,3.90
2023-02-09T21:17:11.010Z,5.20
2023-02-09T21:19:39.473Z,3.90
2023-02-09T21:22:09.136Z,4.40
2023-02-09T21:24:38.897Z,3.90
2023-02-09T21:27:07.554Z,4.60
2023-02-09T21:29:35.982Z,4.10
2023-02-09T21:32:06.187Z,4.30
2023-02-09T21:34:34.714Z,3.80
2023-02-09T21:37:02.915Z,4.50
2023-02-09T21:39:34.402Z,3.80
2023-02-09T21:42:20.161Z,3.70
2023-02-09T21:44:48.489Z,3.60
2023-02-09T21:47:19.064Z,3.70
2023-02-09T21:49:47.110Z,3.70
2023-02-09T21:52:17.308Z,3.60
2023-02-09T21:54:47.037Z,3.60
2023-02-09T21:57:15.054Z,4.50
2023-02-09T21:59:43.692Z,3.60
2023-02-09T22:02:15.198Z,4.20
2023-02-09T22:04:43.677Z,3.60
2023-02-09T22:07:12.807Z,3.50
2023-02-09T22:09:41.141Z,3.40
2023-02-09T22:12:11.647Z,3.40
2023-02-09T22:14:41.317Z,3.90
2023-02-09T22:17:09.429Z,3.30
2023-02-09T22:19:38.534Z,3.60
2023-02-09T22:22:06.615Z,4.30
2023-02-09T22:24:35.011Z,4.30
2023-02-09T22:27:03.616Z,3.20
2023-02-09T22:29:34.543Z,3.30
2023-02-09T22:32:03.086Z,3.20
2023-02-09T22:34:32.682Z,3.20
2023-02-09T22:37:00.633Z,3.20
2023-02-09T22:39:28.610Z,4.10
2023-02-09T22:41:58.021Z,3.20
2023-02-09T22:44:28.061Z,3.20
2023-02-09T22:46:57.798Z,3.20
2023-02-09T22:49:25.845Z,3.20
2023-02-09T22:51:53.872Z,2.90
2023-02-09T22:54:22.335Z,3.20
2023-02-09T22:56:50.386Z,3.30
2023-02-09T22:59:18.584Z,3.90
2023-02-09T23:01:46.990Z,3.20
2023-02-09T23:04:17.654Z,3.70
2023-02-09T23:06:46.158Z,3.30
2023-02-09T23:09:15.323Z,3.20
2023-02-09T23:11:44.259Z,3.20
2023-02-09T23:14:12.744Z,3.20
2023-02-09T23:16:42.082Z,3.10
2023-02-09T23:19:13.187Z,3.10
2023-02-09T23:21:44.527Z,3.00
2023-02-09T23:24:13.136Z,3.40
2023-02-09T23:26:41.696Z,3.00
2023-02-09T23:29:11.603Z,3.00
2023-02-09T23:31:43.568Z,3.00
2023-02-09T23:34:14.465Z,3.00
2023-02-09T23:36:43.998Z,2.90
2023-02-09T23:39:16.214Z,2.90
2023-02-09T23:41:45.040Z,2.90
2023-02-09T23:44:13.595Z,2.80
2023-02-09T23:46:41.749Z,2.80
2023-02-09T23:49:09.927Z,2.80
2023-02-09T23:51:38.259Z,2.80
2023-02-09T23:54:11.517Z,3.60
2023-02-09T23:56:39.968Z,3.50
2023-02-09T23:59:13.888Z,2.80
